createdAt,value
2023-01-15T10:55:45.336Z,86.30
2023-01-15T11:00:55.274Z,87.70
2023-01-15T11:06:00.674Z,88.00
2023-01-15T11:11:20.930Z,87.60
2023-01-15T11:16:43.332Z,85.30
2023-01-15T11:21:49.218Z,84.40
2023-01-15T11:26:57.364Z,82.30
2023-01-15T11:32:02.498Z,80.60
2023-01-15T11:37:08.621Z,80.10
2023-01-15T11:42:31.927Z,81.10
2023-01-15T11:47:49.531Z,80.40
2023-01-15T11:52:57.602Z,79.00
2023-01-15T11:58:05.497Z,77.10
2023-01-15T12:03:17.142Z,77.40
2023-01-15T12:08:31.457Z,77.30
2023-01-15T12:13:45.299Z,77.00
2023-01-15T12:18:59.531Z,77.00
2023-01-15T12:24:17.288Z,76.50
2023-01-15T12:29:27.402Z,76.80
2023-01-15T12:34:37.926Z,77.10
2023-01-15T12:39:48.162Z,77.60
2023-01-15T12:45:10.459Z,77.10
2023-01-15T12:50:31.891Z,76.60
2023-01-15T12:55:40.728Z,75.80
2023-01-15T13:00:48.717Z,76.60
2023-01-15T13:05:56.467Z,76.80
2023-01-15T13:11:01.665Z,75.60
2023-01-15T13:16:19.021Z,75.40
2023-01-15T13:21:25.077Z,74.70
2023-01-15T17:28:46.574Z,77.10
2023-01-15T17:33:52.379Z,79.40
2023-01-15T17:38:57.736Z,81.30
2023-01-15T17:44:06.858Z,79.80
2023-01-15T17:49:12.143Z,79.40
2023-01-15T17:54:37.640Z,79.40
2023-01-15T17:59:57.792Z,79.90
2023-01-15T18:05:15.463Z,80.60
2023-01-15T18:10:21.267Z,80.70
2023-01-15T18:15:29.022Z,80.30
2023-01-15T18:20:34.368Z,80.20
2023-01-15T18:25:45.930Z,80.00
2023-01-15T18:30:53.658Z,80.00
2023-01-15T18:36:06.365Z,80.30
2023-01-15T18:41:12.801Z,80.00
2023-01-15T18:46:33.080Z,80.20
2023-01-15T18:51:38.211Z,80.10
2023-01-15T18:56:47.932Z,80.00
2023-01-15T19:01:56.467Z,79.60
2023-01-15T19:07:03.651Z,79.60
2023-01-15T19:12:09.683Z,79.60
2023-01-15T19:17:31.655Z,79.50
2023-01-15T19:22:49.286Z,79.50
2023-01-15T19:27:55.343Z,80.40
2023-01-15T19:33:03.044Z,80.00
2023-01-15T19:38:10.629Z,80.20
2023-01-15T19:43:28.268Z,80.50
2023-01-15T19:48:48.763Z,81.00
2023-01-15T19:53:53.833Z,81.50
2023-01-15T19:58:59.008Z,82.60
2023-01-15T20:04:07.484Z,82.20
2023-01-15T20:09:12.649Z,82.40
2023-01-15T20:14:17.941Z,83.20
2023-01-15T20:19:25.684Z,82.60
2023-01-15T20:24:30.740Z,82.60
2023-01-15T20:29:35.856Z,82.80
2023-01-15T20:34:45.101Z,83.10
2023-01-15T20:39:50.233Z,83.50
2023-01-15T20:44:58.095Z,83.60
2023-01-15T20:50:06.066Z,83.80
2023-01-15T20:55:11.849Z,83.90
2023-01-15T21:00:19.335Z,84.00
2023-01-15T21:05:27.638Z,83.90
2023-01-15T21:10:32.834Z,83.90
2023-01-15T21:15:37.914Z,83.90
2023-01-15T21:20:46.032Z,83.90
2023-01-15T21:25:51.497Z,84.30
2023-01-15T21:30:56.889Z,84.80
2023-01-15T21:36:08.348Z,85.70
2023-01-15T21:41:15.079Z,85.60
2023-01-15T21:46:20.567Z,86.20
2023-01-15T21:51:28.742Z,86.30
2023-01-15T21:56:33.896Z,86.50
2023-01-15T22:01:39.292Z,86.50
2023-01-15T22:06:47.289Z,86.80
2023-01-15T22:11:52.726Z,86.80
2023-01-15T22:16:58.568Z,86.90
2023-01-15T22:22:08.417Z,87.30
2023-01-15T22:27:17.051Z,87.50
2023-01-15T22:32:22.144Z,88.00
2023-01-15T22:37:29.880Z,88.30
2023-01-15T22:42:35.072Z,88.60
2023-01-15T22:47:40.241Z,89.00
2023-01-15T22:52:48.216Z,88.90
2023-01-15T22:57:53.317Z,88.90
2023-01-15T23:03:05.111Z,89.20
2023-01-15T23:08:12.839Z,89.00
2023-01-15T23:13:17.991Z,89.00
2023-01-15T23:18:23.075Z,89.00
2023-01-15T23:23:30.783Z,89.20
2023-01-15T23:28:35.954Z,89.50
2023-01-15T23:33:40.985Z,89.90
2023-01-15T23:38:49.359Z,90.00
2023-01-15T23:44:06.833Z,90.00
